createdAt,value
2022-09-18T00:00:22.573Z,11.93
2022-09-18T00:03:37.567Z,11.87
2022-09-18T00:06:52.573Z,11.85
2022-09-18T00:09:54.425Z,11.91
2022-09-18T00:13:09.654Z,11.87
2022-09-18T00:16:27.789Z,11.91
2022-09-18T00:19:35.984Z,11.82
2022-09-18T00:22:50.563Z,11.91
2022-09-18T00:25:58.595Z,11.78
2022-09-18T00:29:13.706Z,11.88
2022-09-18T00:32:28.603Z,11.97
2022-09-18T00:35:30.355Z,12.00
2022-09-18T00:38:44.615Z,11.88
2022-09-18T00:41:53.242Z,11.97
2022-09-18T00:45:01.670Z,11.96
2022-09-18T00:48:10.159Z,11.95
2022-09-18T00:51:19.667Z,11.95
2022-09-18T00:54:40.656Z,11.89
2022-09-18T00:57:52.923Z,11.89
2022-09-18T01:01:01.640Z,11.91
2022-09-18T01:04:18.712Z,11.95
2022-09-18T01:07:48.632Z,11.82
2022-09-18T01:11:16.617Z,11.77
2022-09-18T01:14:36.736Z,11.75
2022-09-18T01:18:28.590Z,11.77
2022-09-18T01:22:03.611Z,11.86
2022-09-18T01:25:48.684Z,11.84
2022-09-18T01:29:15.582Z,11.74
2022-09-18T01:32:37.619Z,11.64
2022-09-18T01:35:52.132Z,11.53
2022-09-18T01:39:07.643Z,11.49
2022-09-18T01:42:19.499Z,11.52
2022-09-18T01:45:40.627Z,11.46
2022-09-18T01:48:57.599Z,11.40
2022-09-18T01:52:13.042Z,11.49
2022-09-18T01:55:36.640Z,11.42
2022-09-18T01:58:38.815Z,11.40
2022-09-18T02:01:56.723Z,11.46
2022-09-18T02:05:15.622Z,11.36
2022-09-18T02:08:23.310Z,11.37
2022-09-18T02:11:40.686Z,11.34
2022-09-18T02:14:53.624Z,11.35
2022-09-18T02:18:06.695Z,11.26
2022-09-18T02:21:34.659Z,11.26
2022-09-18T02:24:39.802Z,11.18
2022-09-18T02:27:56.652Z,11.13
2022-09-18T02:31:12.714Z,11.10
2022-09-18T02:34:14.676Z,11.06
2022-09-18T02:37:46.709Z,10.90
2022-09-18T02:41:06.436Z,10.93
2022-09-18T02:44:34.655Z,10.95
2022-09-18T02:48:16.730Z,10.87
2022-09-18T02:51:31.772Z,10.78
2022-09-18T02:54:55.669Z,10.79
2022-09-18T02:58:11.650Z,10.76
2022-09-18T03:01:22.679Z,10.71
2022-09-18T03:04:37.656Z,10.70
2022-09-18T03:07:46.248Z,10.74
2022-09-18T03:10:54.684Z,10.67
2022-09-18T03:14:04.037Z,10.55
2022-09-18T03:17:12.771Z,10.57
2022-09-18T03:20:27.976Z,10.59
2022-09-18T03:23:45.574Z,10.60
2022-09-18T03:26:48.492Z,10.53
2022-09-18T03:30:04.662Z,10.49
2022-09-18T03:33:20.720Z,10.47
2022-09-18T03:36:22.454Z,10.44
2022-09-18T03:39:37.722Z,10.52
2022-09-18T03:42:39.418Z,10.42
2022-09-18T03:45:53.675Z,10.47
2022-09-18T03:49:08.728Z,10.42
2022-09-18T03:52:10.500Z,10.41
2022-09-18T03:55:25.696Z,10.47
2022-09-18T03:58:40.699Z,10.51
2022-09-18T04:01:42.793Z,10.51
2022-09-18T04:04:57.678Z,10.48
2022-09-18T04:08:06.523Z,10.46
2022-09-18T04:11:14.707Z,10.45
2022-09-18T04:14:27.928Z,10.39
2022-09-18T04:17:38.688Z,10.38
2022-09-18T04:21:00.740Z,10.44
2022-09-18T04:24:09.275Z,10.51
2022-09-18T04:27:17.810Z,10.46
2022-09-18T04:30:33.723Z,10.41
2022-09-18T04:33:48.743Z,10.43
2022-09-18T04:36:56.816Z,10.46
2022-09-18T04:40:06.043Z,10.48
2022-09-18T04:43:14.755Z,10.54
2022-09-18T04:46:23.414Z,10.57
2022-09-18T04:49:37.752Z,10.58
2022-09-18T04:52:39.537Z,10.65
2022-09-18T04:55:54.691Z,10.61
2022-09-18T04:59:04.000Z,10.68
2022-09-18T05:02:12.746Z,10.75
2022-09-18T05:05:27.778Z,10.85
2022-09-18T05:08:42.723Z,10.87
2022-09-18T05:11:50.726Z,10.87
2022-09-18T05:14:59.293Z,10.96
2022-09-18T05:18:11.466Z,10.97
2022-09-18T05:21:33.703Z,10.99
2022-09-18T05:24:48.726Z,10.92
2022-09-18T05:28:04.751Z,10.94
2022-09-18T05:31:13.339Z,11.01
2022-09-18T05:34:27.737Z,10.96
2022-09-18T05:37:29.489Z,11.03
2022-09-18T05:40:45.756Z,11.02
2022-09-18T05:44:00.772Z,11.13
2022-09-18T05:47:02.624Z,11.11
2022-09-18T05:50:18.767Z,11.17
2022-09-18T05:53:28.720Z,11.27
2022-09-18T05:56:37.745Z,11.36
2022-09-18T05:59:52.736Z,11.45
2022-09-18T06:03:02.791Z,11.49
2022-09-18T06:06:17.727Z,11.64
2022-09-18T06:09:32.746Z,11.95
2022-09-18T06:12:34.499Z,12.27
2022-09-18T06:15:52.805Z,12.46
2022-09-18T06:18:54.612Z,12.46
2022-09-18T06:22:16.758Z,12.64
2022-09-18T06:25:25.360Z,12.89
2022-09-18T06:28:33.751Z,13.12
2022-09-18T06:31:42.461Z,13.16
2022-09-18T06:34:56.739Z,13.25
2022-09-18T06:38:03.218Z,13.23
2022-09-18T06:41:17.760Z,13.31
2022-09-18T06:44:26.268Z,13.25
2022-09-18T06:47:34.818Z,13.25
2022-09-18T06:50:43.388Z,13.31
2022-09-18T06:53:51.739Z,13.34
2022-09-18T06:57:06.831Z,13.28
2022-09-18T07:00:15.625Z,13.17
2022-09-18T07:03:23.827Z,13.21
2022-09-18T07:06:32.399Z,13.10
2022-09-18T07:09:46.791Z,13.27
2022-09-18T07:12:48.621Z,13.53
2022-09-18T07:16:03.831Z,13.48
2022-09-18T07:19:05.808Z,13.69
2022-09-18T07:22:27.784Z,13.59
2022-09-18T07:25:42.800Z,13.49
2022-09-18T07:28:51.776Z,13.30
2022-09-18T07:32:06.787Z,13.37
2022-09-18T07:35:22.784Z,13.33
2022-09-18T07:38:24.595Z,13.41
2022-09-18T07:41:39.828Z,13.42
2022-09-18T07:44:41.587Z,13.49
2022-09-18T07:47:56.989Z,13.52
2022-09-18T07:51:06.138Z,13.63
2022-09-18T07:54:14.812Z,13.72
2022-09-18T07:57:23.633Z,13.87
2022-09-18T08:00:47.795Z,13.72
2022-09-18T08:04:02.799Z,13.71
2022-09-18T08:07:17.809Z,13.85
2022-09-18T08:10:32.844Z,13.82
2022-09-18T08:13:40.820Z,14.04
2022-09-18T08:16:49.332Z,14.19
2022-09-18T08:19:57.830Z,14.55
2022-09-18T08:23:13.054Z,14.70
2022-09-18T08:26:27.874Z,14.49
2022-09-18T08:29:37.828Z,14.07
2022-09-18T08:32:46.304Z,14.09
2022-09-18T08:36:01.825Z,14.10
2022-09-18T08:39:09.809Z,14.18
2022-09-18T08:42:38.823Z,14.05
2022-09-18T08:46:23.929Z,13.89
2022-09-18T08:49:51.862Z,13.99
2022-09-18T08:53:06.715Z,13.87
2022-09-18T08:56:25.808Z,13.81
2022-09-18T08:59:38.087Z,13.96
2022-09-18T09:02:57.848Z,13.98
2022-09-18T09:06:21.887Z,13.86
2022-09-18T09:09:50.319Z,13.80
2022-09-18T09:13:33.865Z,13.80
2022-09-18T09:16:50.339Z,13.88
2022-09-18T09:20:20.844Z,13.86
2022-09-18T09:23:59.891Z,13.86
2022-09-18T09:27:13.672Z,13.84
2022-09-18T09:30:29.872Z,14.24
2022-09-18T09:33:54.868Z,14.24
2022-09-18T09:37:09.715Z,14.37
2022-09-18T09:40:40.975Z,14.25
2022-09-18T09:43:52.138Z,14.32
2022-09-18T09:47:26.827Z,14.44
2022-09-18T09:50:56.883Z,14.24
2022-09-18T09:54:03.316Z,14.22
2022-09-18T09:57:47.872Z,14.05
2022-09-18T10:01:15.398Z,13.87
2022-09-18T10:04:40.855Z,13.81
2022-09-18T10:08:08.867Z,13.83
2022-09-18T10:11:17.693Z,13.71
2022-09-18T10:14:31.089Z,14.02
2022-09-18T10:17:46.972Z,13.95
2022-09-18T10:20:54.280Z,14.19
2022-09-18T10:24:33.895Z,14.53
2022-09-18T10:27:42.483Z,14.62
2022-09-18T10:31:06.934Z,14.83
2022-09-18T10:34:35.404Z,14.84
2022-09-18T10:37:49.890Z,14.90
2022-09-18T10:40:58.854Z,14.96
2022-09-18T10:44:22.431Z,14.85
2022-09-18T10:47:39.906Z,14.92
2022-09-18T10:50:59.928Z,14.78
2022-09-18T10:54:19.557Z,15.16
2022-09-18T10:57:49.952Z,15.04
2022-09-18T11:01:03.625Z,15.22
2022-09-18T11:04:23.905Z,15.56
2022-09-18T11:07:32.951Z,15.55
2022-09-18T11:10:47.581Z,15.33
2022-09-18T11:14:04.938Z,15.31
2022-09-18T11:17:33.933Z,19.26
2022-09-18T11:21:00.898Z,19.15
2022-09-18T11:24:24.929Z,16.62
2022-09-18T11:27:54.027Z,16.49
2022-09-18T11:31:15.118Z,17.03
2022-09-18T11:34:29.132Z,17.10
2022-09-18T11:37:47.717Z,16.41
2022-09-18T11:41:06.913Z,19.67
2022-09-18T11:44:23.914Z,17.58
2022-09-18T11:47:40.131Z,16.73
2022-09-18T11:50:51.919Z,16.87
2022-09-18T11:54:14.968Z,16.68
2022-09-18T11:57:35.195Z,16.21
2022-09-18T12:00:55.050Z,18.08
2022-09-18T12:04:15.003Z,17.83
2022-09-18T12:07:55.587Z,19.98
2022-09-18T12:11:21.587Z,22.40
2022-09-18T12:14:40.106Z,23.78
2022-09-18T12:18:16.554Z,22.93
2022-09-18T12:21:43.568Z,18.38
2022-09-18T12:24:52.506Z,19.46
2022-09-18T12:28:29.578Z,18.89
2022-09-18T12:31:54.614Z,18.50
2022-09-18T12:35:21.292Z,18.14
2022-09-18T12:39:08.282Z,18.06
2022-09-18T12:42:42.227Z,18.17
2022-09-18T12:46:11.511Z,18.53
2022-09-18T12:49:47.293Z,18.74
2022-09-18T12:53:32.239Z,18.76
2022-09-18T12:57:01.205Z,18.54
2022-09-18T13:00:15.267Z,18.26
2022-09-18T13:03:37.308Z,18.04
2022-09-18T13:06:52.431Z,17.90
2022-09-18T13:10:22.258Z,17.76
2022-09-18T13:13:55.245Z,17.93
2022-09-18T13:17:11.475Z,17.97
2022-09-18T13:20:28.926Z,17.99
2022-09-18T13:23:47.023Z,17.83
2022-09-18T13:26:57.969Z,17.57
2022-09-18T13:30:31.972Z,17.52
2022-09-18T13:33:52.219Z,17.26
2022-09-18T13:37:12.974Z,17.24
2022-09-18T13:40:35.045Z,17.18
2022-09-18T13:43:58.946Z,16.94
2022-09-18T13:47:19.963Z,16.83
2022-09-18T13:50:30.120Z,16.45
2022-09-18T13:53:48.029Z,15.97
2022-09-18T13:57:24.978Z,15.61
2022-09-18T14:00:41.110Z,15.21
2022-09-18T14:03:50.035Z,14.79
2022-09-18T14:06:58.700Z,14.72
2022-09-18T14:10:29.964Z,14.56
2022-09-18T14:13:45.966Z,14.58
2022-09-18T14:16:56.330Z,14.66
2022-09-18T14:20:11.998Z,14.65
2022-09-18T14:23:56.963Z,14.83
2022-09-18T14:27:25.527Z,15.04
2022-09-18T14:30:40.966Z,14.77
2022-09-18T14:33:49.555Z,14.91
2022-09-18T14:37:05.019Z,14.88
2022-09-18T14:40:28.065Z,14.72
2022-09-18T14:43:29.941Z,14.52
2022-09-18T14:47:00.006Z,14.58
2022-09-18T14:50:29.003Z,14.40
2022-09-18T14:53:37.966Z,14.12
2022-09-18T14:56:49.011Z,14.11
2022-09-18T15:00:01.032Z,14.06
2022-09-18T15:03:25.151Z,13.90
2022-09-18T15:06:51.984Z,13.76
2022-09-18T15:10:04.059Z,14.05
2022-09-18T15:13:14.836Z,13.97
2022-09-18T15:16:35.125Z,13.83
2022-09-18T15:19:44.039Z,13.63
2022-09-18T15:22:59.263Z,13.57
2022-09-18T15:26:10.014Z,13.58
2022-09-18T15:29:26.066Z,13.49
2022-09-18T15:32:46.099Z,13.65
2022-09-18T15:35:59.091Z,13.57
2022-09-18T15:39:30.072Z,13.69
2022-09-18T15:42:49.059Z,13.67
2022-09-18T15:46:03.058Z,13.64
2022-09-18T15:49:40.051Z,13.63
2022-09-18T15:53:16.122Z,13.75
2022-09-18T15:56:27.051Z,13.87
2022-09-18T15:59:45.082Z,13.86
2022-09-18T16:03:03.062Z,13.98
2022-09-18T16:06:13.100Z,13.84
2022-09-18T16:09:26.694Z,13.83
2022-09-18T16:12:45.095Z,13.77
2022-09-18T16:16:27.089Z,13.78
2022-09-18T16:19:51.072Z,13.66
2022-09-18T16:23:26.115Z,13.56
2022-09-18T16:26:36.194Z,13.45
2022-09-18T16:29:51.113Z,13.34
2022-09-18T16:33:01.736Z,13.31
2022-09-18T16:36:27.115Z,13.18
2022-09-18T16:39:35.072Z,13.02
2022-09-18T16:42:43.806Z,12.97
2022-09-18T16:45:58.147Z,12.83
2022-09-18T16:49:07.113Z,12.84
2022-09-18T16:52:22.159Z,12.83
2022-09-18T16:55:30.890Z,12.82
2022-09-18T16:58:39.107Z,12.76
2022-09-18T17:02:03.828Z,12.71
2022-09-18T17:05:13.123Z,12.58
2022-09-18T17:08:21.731Z,12.60
2022-09-18T17:11:36.090Z,12.58
2022-09-18T17:14:37.907Z,12.64
2022-09-18T17:17:53.085Z,12.66
2022-09-18T17:21:12.398Z,12.56
2022-09-18T17:24:21.068Z,12.50
2022-09-18T17:27:36.115Z,12.49
2022-09-18T17:30:45.434Z,12.48
2022-09-18T17:33:54.112Z,12.44
2022-09-18T17:37:09.107Z,12.46
2022-09-18T17:40:11.459Z,12.42
2022-09-18T17:43:26.201Z,12.46
2022-09-18T17:46:41.140Z,12.40
2022-09-18T17:49:49.132Z,12.31
2022-09-18T17:53:00.731Z,12.02
2022-09-18T17:56:17.123Z,12.20
2022-09-18T17:59:19.658Z,12.25
2022-09-18T18:02:34.209Z,12.23
2022-09-18T18:05:36.183Z,12.35
2022-09-18T18:08:55.139Z,12.46
2022-09-18T18:12:05.463Z,12.50
2022-09-18T18:15:14.095Z,12.55
2022-09-18T18:18:22.848Z,12.58
2022-09-18T18:21:46.135Z,12.55
2022-09-18T18:24:48.253Z,12.53
2022-09-18T18:28:06.139Z,12.58
2022-09-18T18:31:15.795Z,12.62
2022-09-18T18:34:30.131Z,12.67
2022-09-18T18:37:38.687Z,12.63
2022-09-18T18:40:47.126Z,12.52
2022-09-18T18:44:05.146Z,12.51
2022-09-18T18:47:13.774Z,12.51
2022-09-18T18:50:25.153Z,12.50
2022-09-18T18:53:34.206Z,12.44
2022-09-18T18:56:44.139Z,12.40
2022-09-18T18:59:59.154Z,12.43
2022-09-18T19:03:08.091Z,12.46
2022-09-18T19:06:18.163Z,12.39
2022-09-18T19:09:33.134Z,12.38
2022-09-18T19:12:41.889Z,12.41
2022-09-18T19:15:50.149Z,12.37
2022-09-18T19:18:59.628Z,12.39
2022-09-18T19:22:08.151Z,12.33
2022-09-18T19:25:23.147Z,12.37
2022-09-18T19:28:38.120Z,12.39
2022-09-18T19:31:41.521Z,12.38
2022-09-18T19:34:56.148Z,12.41
2022-09-18T19:38:04.879Z,12.30
2022-09-18T19:41:49.140Z,12.14
2022-09-18T19:45:02.046Z,12.19
2022-09-18T19:48:27.158Z,12.08
2022-09-18T19:51:30.628Z,12.07
2022-09-18T19:54:45.183Z,12.21
2022-09-18T19:58:02.187Z,12.24
2022-09-18T20:01:09.652Z,12.25
2022-09-18T20:04:24.154Z,12.29
2022-09-18T20:07:33.190Z,12.38
2022-09-18T20:10:58.184Z,12.45
2022-09-18T20:14:06.871Z,12.46
2022-09-18T20:17:16.191Z,12.48
2022-09-18T20:20:34.095Z,12.45
2022-09-18T20:23:49.202Z,12.33
2022-09-18T20:26:57.351Z,12.37
2022-09-18T20:30:08.284Z,12.43
2022-09-18T20:33:17.213Z,12.41
2022-09-18T20:36:33.222Z,12.43
2022-09-18T20:39:48.236Z,12.44
2022-09-18T20:42:56.179Z,12.53
2022-09-18T20:46:06.848Z,12.53
2022-09-18T20:49:21.204Z,12.51
2022-09-18T20:52:29.787Z,12.49
2022-09-18T20:55:38.223Z,12.57
2022-09-18T20:58:48.506Z,12.58
2022-09-18T21:02:03.287Z,12.64
2022-09-18T21:05:09.395Z,12.66
2022-09-18T21:08:24.201Z,12.58
2022-09-18T21:11:37.080Z,12.57
2022-09-18T21:14:45.232Z,12.55
2022-09-18T21:18:00.210Z,12.59
2022-09-18T21:21:11.185Z,12.58
2022-09-18T21:24:26.451Z,12.57
2022-09-18T21:27:41.300Z,12.66
2022-09-18T21:30:43.664Z,12.71
2022-09-18T21:33:59.227Z,12.78
2022-09-18T21:37:11.257Z,12.83
2022-09-18T21:40:31.127Z,12.95
2022-09-18T21:43:47.211Z,13.03
2022-09-18T21:46:49.106Z,13.03
2022-09-18T21:50:05.240Z,13.01
2022-09-18T21:53:13.802Z,13.02
2022-09-18T21:56:26.208Z,13.03
2022-09-18T21:59:42.238Z,13.04
2022-09-18T22:02:59.217Z,13.02
2022-09-18T22:06:00.962Z,13.02
2022-09-18T22:09:20.246Z,13.04
2022-09-18T22:12:22.095Z,13.04
2022-09-18T22:15:37.260Z,13.05
2022-09-18T22:18:45.835Z,13.09
2022-09-18T22:22:14.242Z,13.12
2022-09-18T22:25:29.203Z,13.15
2022-09-18T22:28:37.780Z,13.18
2022-09-18T22:31:46.271Z,13.23
2022-09-18T22:34:54.997Z,13.23
2022-09-18T22:38:03.236Z,13.24
2022-09-18T22:41:13.119Z,13.23
2022-09-18T22:44:28.244Z,13.21
2022-09-18T22:47:39.272Z,13.20
2022-09-18T22:50:57.248Z,13.20
2022-09-18T22:54:06.841Z,13.22
2022-09-18T22:57:15.327Z,13.28
2022-09-18T23:00:24.923Z,13.24
2022-09-18T23:03:33.251Z,13.20
2022-09-18T23:06:41.827Z,13.19
2022-09-18T23:09:56.263Z,13.15
2022-09-18T23:12:58.018Z,13.18
2022-09-18T23:16:17.360Z,13.08
2022-09-18T23:19:35.299Z,13.02
2022-09-18T23:22:50.288Z,13.00
2022-09-18T23:26:04.659Z,12.92
2022-09-18T23:29:22.251Z,12.90
2022-09-18T23:32:24.087Z,12.79
2022-09-18T23:35:39.250Z,12.79
2022-09-18T23:38:49.391Z,12.72
2022-09-18T23:42:06.294Z,12.70
2022-09-18T23:45:14.940Z,12.70
2022-09-18T23:48:23.302Z,12.64
2022-09-18T23:51:42.295Z,12.59
2022-09-18T23:54:57.302Z,12.53
2022-09-18T23:57:59.058Z,12.49
